Time;durP1;ratioP1;P1;durP2;ratioP2;P2;SDS_P1;SDS_P2;PMS_P1;PMS_P2;Temp;Humidity;BMP_temperature;BMP_pressure;BME280_temperature;BME280_humidity;BME280_pressure;Samples;Min_cycle;Max_cycle;Signal;HPM_P1;HPM_P2
2021/03/28 00:00:53;;;;;;;12.75;3.45;;;8.00;74.60;;;;;;5014091;28;20031;-82
2021/03/28 00:03:36;;;;;;;13.02;3.55;;;8.10;74.60;;;;;;5035368;28;20061;-82
2021/03/28 00:06:32;;;;;;;12.18;3.17;;;8.10;74.90;;;;;;5017618;28;20076;-81
2021/03/28 00:09:12;;;;;;;15.88;4.18;;;8.10;75.00;;;;;;5021658;28;20025;-82
2021/03/28 00:11:56;;;;;;;13.52;3.35;;;8.20;74.90;;;;;;5017059;28;20026;-83
2021/03/28 00:14:44;;;;;;;13.27;3.55;;;8.20;75.90;;;;;;5016957;28;20061;-82
2021/03/28 00:17:19;;;;;;;15.68;4.10;;;8.10;75.60;;;;;;5017222;28;20028;-81
2021/03/28 00:19:52;;;;;;;12.45;3.15;;;8.10;75.80;;;;;;5035277;28;20486;-82
2021/03/28 00:22:24;;;;;;;10.55;3.45;;;8.00;76.20;;;;;;5033797;28;20029;-82
2021/03/28 00:25:16;;;;;;;11.20;3.00;;;8.00;76.40;;;;;;5033737;28;20075;-82
2021/03/28 00:27:47;;;;;;;14.05;3.47;;;8.00;76.60;;;;;;5015983;28;20045;-84
2021/03/28 00:30:25;;;;;;;15.90;3.65;;;8.00;76.90;;;;;;5035008;28;20026;-82
2021/03/28 00:33:08;;;;;;;11.32;3.60;;;8.00;76.90;;;;;;5034954;28;20050;-82
2021/03/28 00:35:47;;;;;;;10.90;3.30;;;8.00;77.00;;;;;;5017395;28;20482;-82
2021/03/28 00:38:21;;;;;;;15.32;4.00;;;8.10;77.10;;;;;;5003602;28;20034;-82
2021/03/28 00:41:08;;;;;;;16.45;4.30;;;8.00;77.20;;;;;;5034170;28;20030;-82
2021/03/28 00:43:54;;;;;;;15.15;4.47;;;8.10;77.60;;;;;;5022581;28;20112;-84
2021/03/28 00:46:34;;;;;;;19.02;4.97;;;8.10;77.60;;;;;;5016433;28;20119;-82
2021/03/28 00:49:00;;;;;;;14.30;4.30;;;8.10;77.70;;;;;;5016841;28;20032;-83
2021/03/28 00:51:28;;;;;;;14.55;4.72;;;8.10;77.80;;;;;;5016916;28;20169;-83
2021/03/28 00:54:18;;;;;;;12.07;4.70;;;8.10;78.00;;;;;;5016826;28;20030;-82
2021/03/28 00:56:51;;;;;;;16.75;5.85;;;8.10;77.90;;;;;;5022528;28;20048;-82
2021/03/28 00:59:45;;;;;;;16.58;5.20;;;8.10;78.00;;;;;;5017122;28;20026;-82
2021/03/28 01:02:11;;;;;;;19.38;4.55;;;8.10;78.20;;;;;;5004505;28;20167;-82
2021/03/28 01:04:40;;;;;;;15.32;5.20;;;8.10;78.30;;;;;;5016832;28;20493;-82
2021/03/28 01:07:25;;;;;;;16.63;4.70;;;8.10;78.50;;;;;;5034496;28;20026;-82
2021/03/28 01:10:04;;;;;;;12.75;4.55;;;8.10;78.70;;;;;;5017068;28;20377;-82
2021/03/28 01:12:41;;;;;;;15.40;4.85;;;8.10;78.80;;;;;;5016693;28;20466;-82
2021/03/28 01:15:34;;;;;;;13.98;4.05;;;8.10;79.00;;;;;;5034321;28;20033;-82
2021/03/28 01:18:06;;;;;;;12.60;4.10;;;8.10;79.10;;;;;;5033662;28;20036;-81
2021/03/28 01:20:41;;;;;;;19.17;5.25;;;8.10;79.20;;;;;;5024031;28;20037;-82
2021/03/28 01:23:18;;;;;;;16.38;4.63;;;8.10;79.50;;;;;;5026660;28;20030;-81
2021/03/28 01:26:15;;;;;;;20.08;3.85;;;8.10;79.60;;;;;;5040945;28;20018;-85
2021/03/28 01:28:57;;;;;;;15.52;4.60;;;8.10;79.80;;;;;;5039172;28;20064;-82
2021/03/28 01:31:46;;;;;;;13.10;4.30;;;8.10;79.80;;;;;;5037087;28;20462;-82
2021/03/28 01:34:31;;;;;;;14.43;3.55;;;8.10;79.90;;;;;;5055649;28;20064;-93
2021/03/28 01:37:07;;;;;;;14.85;3.47;;;8.10;79.90;;;;;;5038804;28;20076;-82
2021/03/28 01:39:48;;;;;;;11.57;3.47;;;8.10;80.20;;;;;;5016036;28;20049;-81
2021/03/28 01:42:33;;;;;;;10.15;4.32;;;8.10;80.20;;;;;;5032545;28;20463;-81
2021/03/28 01:45:21;;;;;;;14.63;3.70;;;8.10;80.50;;;;;;5032525;28;20044;-81
2021/03/28 01:48:27;;;;;;;13.35;3.22;;;8.10;80.70;;;;;;5015879;28;20022;-81
2021/03/28 01:50:58;;;;;;;15.60;3.20;;;8.10;80.50;;;;;;4997767;28;20038;-81
2021/03/28 01:53:38;;;;;;;13.98;3.63;;;8.10;81.00;;;;;;5015147;28;20063;-81
2021/03/28 01:56:23;;;;;;;15.18;4.13;;;8.00;81.30;;;;;;5015591;28;20029;-82
2021/03/28 01:58:55;;;;;;;13.43;2.83;;;8.00;81.60;;;;;;5021725;28;20076;-82
2021/03/28 02:01:45;;;;;;;14.88;3.88;;;8.00;81.60;;;;;;5033077;28;20056;-82
2021/03/28 02:04:32;;;;;;;10.05;2.30;;;8.00;82.00;;;;;;5015124;28;20034;-81
2021/03/28 02:07:30;;;;;;;17.95;3.78;;;8.00;82.20;;;;;;5023545;28;20039;-82
2021/03/28 02:10:41;;;;;;;15.23;3.40;;;8.00;82.40;;;;;;5034155;28;20017;-88
2021/03/28 02:13:23;;;;;;;11.48;2.40;;;7.90;82.80;;;;;;5051522;28;20094;-81
2021/03/28 02:16:14;;;;;;;24.45;3.05;;;7.90;82.80;;;;;;5052201;28;20029;-81
2021/03/28 02:18:42;;;;;;;15.38;2.47;;;7.90;83.40;;;;;;5041828;28;20029;-81
2021/03/28 02:21:14;;;;;;;15.30;3.67;;;7.90;83.60;;;;;;5037234;28;20030;-81
2021/03/28 02:23:42;;;;;;;13.38;3.35;;;7.80;83.60;;;;;;5035133;28;20026;-81
2021/03/28 02:26:47;;;;;;;15.52;3.05;;;7.80;83.80;;;;;;5041557;28;20420;-82
2021/03/28 02:29:21;;;;;;;13.27;2.90;;;7.90;84.10;;;;;;4986891;28;20054;-81
2021/03/28 02:31:56;;;;;;;19.33;3.85;;;7.80;84.30;;;;;;5029161;28;20029;-82
2021/03/28 02:34:59;;;;;;;11.13;3.03;;;7.80;84.40;;;;;;5051248;28;20039;-82
2021/03/28 02:37:56;;;;;;;15.10;3.22;;;7.80;84.60;;;;;;5021786;28;20069;-81
2021/03/28 02:40:34;;;;;;;16.35;3.13;;;7.80;84.80;;;;;;5018251;28;20462;-81
2021/03/28 02:43:09;;;;;;;11.30;3.00;;;7.80;84.90;;;;;;5031260;28;20044;-83
2021/03/28 02:45:41;;;;;;;11.75;2.75;;;7.80;85.20;;;;;;5002336;28;20021;-81
2021/03/28 02:48:34;;;;;;;11.00;2.90;;;7.80;85.00;;;;;;5031165;28;20074;-81
2021/03/28 02:51:28;;;;;;;11.90;2.63;;;7.90;84.80;;;;;;5020989;28;20090;-84
2021/03/28 02:54:28;;;;;;;10.77;3.03;;;7.80;85.20;;;;;;5031390;28;20029;-82
2021/03/28 02:57:03;;;;;;;12.70;4.28;;;7.90;85.30;;;;;;5032551;28;20034;-82
2021/03/28 03:00:07;;;;;;;15.93;2.83;;;7.80;85.30;;;;;;5015248;28;20083;-81
2021/03/28 03:03:16;;;;;;;17.25;4.20;;;7.80;85.70;;;;;;5017976;28;20105;-83
2021/03/28 03:06:05;;;;;;;10.70;2.42;;;7.70;86.30;;;;;;5014434;28;20080;-81
2021/03/28 03:08:43;;;;;;;15.07;2.47;;;7.70;86.50;;;;;;5014790;28;20032;-81
2021/03/28 03:11:30;;;;;;;13.73;2.90;;;7.70;86.80;;;;;;5014296;28;20079;-82
2021/03/28 03:14:01;;;;;;;14.23;3.00;;;7.60;86.80;;;;;;5031495;28;20065;-82
2021/03/28 03:16:48;;;;;;;;;;;7.70;86.70;;;;;;5023998;28;20027;-83
2021/03/28 03:19:58;;;;;;;14.57;2.47;;;7.70;86.60;;;;;;5030316;28;20015;-82
2021/03/28 03:23:01;;;;;;;16.05;3.72;;;7.70;86.80;;;;;;4997143;28;20061;-81
2021/03/28 03:25:48;;;;;;;12.30;3.63;;;7.70;86.70;;;;;;5030620;28;20029;-82
2021/03/28 03:28:36;;;;;;;12.90;2.67;;;7.70;86.80;;;;;;5021626;28;20112;-82
2021/03/28 03:31:13;;;;;;;10.73;2.38;;;7.70;87.00;;;;;;5029429;28;20021;-82
2021/03/28 03:33:47;;;;;;;17.13;2.90;;;7.70;87.20;;;;;;5030335;28;20069;-81
2021/03/28 03:36:25;;;;;;;13.15;2.95;;;7.70;87.30;;;;;;5032036;28;20374;-82
2021/03/28 03:39:00;;;;;;;13.00;2.80;;;7.70;87.30;;;;;;5034238;28;20029;-82
2021/03/28 03:41:43;;;;;;;8.90;2.28;;;7.70;87.40;;;;;;5035467;28;20484;-82
2021/03/28 03:44:46;;;;;;;13.50;3.13;;;7.70;87.20;;;;;;5034502;28;20025;-82
2021/03/28 03:47:21;;;;;;;11.65;2.72;;;7.70;87.50;;;;;;5035882;28;20069;-82
2021/03/28 03:50:02;;;;;;;11.57;2.65;;;7.70;87.30;;;;;;5000698;28;20046;-83
2021/03/28 03:52:28;;;;;;;12.82;2.42;;;7.70;87.30;;;;;;5025857;28;20073;-84
2021/03/28 03:54:57;;;;;;;10.35;2.97;;;7.70;87.50;;;;;;5035191;28;20060;-83
2021/03/28 03:57:38;;;;;;;18.08;4.15;;;7.70;87.50;;;;;;5017728;28;20021;-82
2021/03/28 04:00:03;;;;;;;11.40;2.53;;;7.70;87.70;;;;;;5033877;28;20029;-82
2021/03/28 04:02:50;;;;;;;15.02;2.97;;;7.70;87.80;;;;;;5033714;28;20036;-82
2021/03/28 04:05:51;;;;;;;13.30;2.90;;;7.60;87.80;;;;;;5033810;28;20052;-82
2021/03/28 04:08:38;;;;;;;9.93;2.53;;;7.60;87.90;;;;;;5017112;28;20022;-82
2021/03/28 04:11:43;;;;;;;12.73;3.03;;;7.60;87.90;;;;;;5033976;28;20194;-82
2021/03/28 04:14:30;;;;;;;12.82;4.05;;;7.60;87.70;;;;;;5034813;28;20595;-82
2021/03/28 04:17:25;;;;;;;12.32;3.58;;;7.60;87.60;;;;;;5034018;28;20568;-82
2021/03/28 04:20:23;;;;;;;11.25;2.70;;;7.60;87.70;;;;;;5017452;28;20102;-82
2021/03/28 04:23:06;;;;;;;19.70;3.90;;;7.60;87.70;;;;;;4984629;28;20164;-82
2021/03/28 04:26:09;;;;;;;15.00;2.90;;;7.60;87.80;;;;;;5017159;28;20026;-81
2021/03/28 04:28:50;;;;;;;12.05;3.20;;;7.60;88.10;;;;;;5034897;28;20045;-82
2021/03/28 04:31:34;;;;;;;20.27;3.28;;;7.60;88.10;;;;;;5022703;28;20014;-81
2021/03/28 04:34:33;;;;;;;12.52;2.83;;;7.60;88.20;;;;;;5033466;28;20058;-82
2021/03/28 04:37:29;;;;;;;9.63;2.75;;;7.60;88.30;;;;;;5017551;28;20031;-82
2021/03/28 04:40:17;;;;;;;11.63;3.00;;;7.50;88.30;;;;;;5027925;28;20022;-82
2021/03/28 04:43:13;;;;;;;13.32;2.83;;;7.60;88.30;;;;;;5033641;28;20413;-82
2021/03/28 04:45:42;;;;;;;10.57;2.45;;;7.60;88.10;;;;;;5022205;28;20076;-82
2021/03/28 04:48:20;;;;;;;9.25;2.90;;;7.60;88.20;;;;;;5030402;28;20449;-82
2021/03/28 04:51:04;;;;;;;13.25;3.40;;;7.60;88.10;;;;;;5029614;28;20136;-82
2021/03/28 04:53:51;;;;;;;12.57;3.20;;;7.60;88.30;;;;;;5022835;28;20500;-82
2021/03/28 04:56:41;;;;;;;13.05;3.20;;;7.60;88.60;;;;;;5034907;28;20100;-82
2021/03/28 04:59:10;;;;;;;10.30;2.55;;;7.60;88.60;;;;;;5026889;28;20033;-81
2021/03/28 05:01:42;;;;;;;10.70;2.72;;;7.60;88.30;;;;;;5017234;28;20030;-81
2021/03/28 05:04:37;;;;;;;11.32;2.40;;;7.60;88.30;;;;;;5019422;28;20477;-81
2021/03/28 05:07:42;;;;;;;15.00;2.80;;;7.60;88.30;;;;;;4999444;28;20048;-82
2021/03/28 05:10:11;;;;;;;15.80;3.22;;;7.70;88.40;;;;;;5059113;28;20009;-81
2021/03/28 05:13:07;;;;;;;11.95;2.75;;;7.60;88.20;;;;;;5054281;28;20026;-82
2021/03/28 05:16:05;;;;;;;12.43;3.10;;;7.70;88.30;;;;;;5035652;28;20120;-81
2021/03/28 05:18:40;;;;;;;11.50;2.70;;;7.70;88.30;;;;;;5055681;28;20034;-88
2021/03/28 05:21:30;;;;;;;9.18;2.97;;;7.70;88.30;;;;;;5051154;28;20037;-83
2021/03/28 05:24:14;;;;;;;10.48;2.80;;;7.70;88.20;;;;;;5034007;28;20068;-82
2021/03/28 05:26:50;;;;;;;12.90;2.85;;;7.70;88.30;;;;;;5024270;28;20030;-82
2021/03/28 05:29:28;;;;;;;13.93;3.47;;;7.70;88.30;;;;;;5016137;28;20020;-81
2021/03/28 05:32:32;;;;;;;12.35;3.15;;;7.80;88.10;;;;;;5034061;28;20026;-81
2021/03/28 05:35:16;;;;;;;11.73;2.67;;;7.80;88.40;;;;;;5015133;28;20063;-81
2021/03/28 05:38:00;;;;;;;16.05;3.13;;;7.80;88.30;;;;;;5015746;28;20022;-81
2021/03/28 05:40:56;;;;;;;11.45;2.38;;;7.80;88.40;;;;;;5015998;28;20072;-82
2021/03/28 05:43:55;;;;;;;9.07;2.67;;;7.80;88.40;;;;;;5022715;28;20100;-83
2021/03/28 05:46:26;;;;;;;9.38;2.50;;;7.80;88.60;;;;;;5032690;28;20083;-82
2021/03/28 05:49:16;;;;;;;11.88;2.67;;;7.90;88.60;;;;;;5015654;28;20115;-82
2021/03/28 05:52:00;;;;;;;12.23;2.45;;;7.90;88.60;;;;;;5004312;28;20022;-82
2021/03/28 05:54:28;;;;;;;8.85;2.75;;;7.90;88.60;;;;;;5033175;28;20063;-82
2021/03/28 05:58:01;;;;;;;14.23;3.03;;;7.90;88.70;;;;;;5031691;28;20018;-82
2021/03/28 06:00:53;;;;;;;7.30;2.15;;;7.90;88.70;;;;;;4945755;28;20074;-82
2021/03/28 06:03:19;;;;;;;10.68;2.55;;;7.90;88.80;;;;;;4968438;28;20114;-84
2021/03/28 06:06:23;;;;;;;16.17;3.95;;;7.90;88.80;;;;;;5003339;28;20156;-81
2021/03/28 06:08:57;;;;;;;13.38;2.35;;;8.00;88.90;;;;;;5022412;28;20033;-82
2021/03/28 06:12:02;;;;;;;14.52;3.10;;;8.00;88.70;;;;;;5015088;28;20026;-84
2021/03/28 06:14:47;;;;;;;7.13;2.25;;;8.10;88.40;;;;;;5005230;28;20436;-82
2021/03/28 06:17:27;;;;;;;10.00;2.50;;;8.10;88.40;;;;;;5031475;28;20025;-81
2021/03/28 06:20:22;;;;;;;12.18;2.42;;;8.20;88.40;;;;;;5023609;28;20417;-83
2021/03/28 06:23:33;;;;;;;10.48;2.08;;;8.10;88.30;;;;;;5021742;28;20036;-82
2021/03/28 06:26:37;;;;;;;12.00;2.28;;;8.20;88.30;;;;;;4999190;28;20049;-82
2021/03/28 06:29:29;;;;;;;8.43;2.25;;;8.20;88.20;;;;;;5029422;28;20056;-83
2021/03/28 06:32:37;;;;;;;7.72;2.40;;;8.20;87.80;;;;;;5032491;28;20100;-80
2021/03/28 06:35:14;;;;;;;10.77;2.35;;;8.30;87.80;;;;;;5023278;28;20049;-82
2021/03/28 06:38:04;;;;;;;9.32;2.67;;;8.30;87.90;;;;;;5031507;28;20026;-82
2021/03/28 06:40:42;;;;;;;10.95;2.00;;;8.40;88.00;;;;;;5030765;28;20115;-82
2021/03/28 06:43:45;;;;;;;12.82;2.50;;;8.40;87.90;;;;;;5030182;28;20049;-82
2021/03/28 06:46:48;;;;;;;8.25;2.47;;;8.50;87.60;;;;;;5030317;28;20140;-82
2021/03/28 06:49:31;;;;;;;10.07;2.38;;;8.50;87.30;;;;;;5031572;28;20075;-82
2021/03/28 06:52:22;;;;;;;11.32;2.35;;;8.50;87.00;;;;;;5029954;28;20025;-82
2021/03/28 06:55:13;;;;;;;12.05;2.90;;;8.50;87.00;;;;;;5030361;28;20509;-83
2021/03/28 06:58:05;;;;;;;10.60;2.30;;;8.50;86.80;;;;;;5029584;28;20033;-82
2021/03/28 07:01:30;;;;;;;9.77;2.53;;;8.60;87.10;;;;;;5018831;28;20445;-83
2021/03/28 07:04:25;;;;;;;12.10;2.90;;;8.60;87.10;;;;;;4950812;28;20031;-82
2021/03/28 07:07:28;;;;;;;10.35;2.85;;;8.60;87.20;;;;;;4951390;28;20031;-81
2021/03/28 07:10:18;;;;;;;12.18;2.55;;;8.60;87.30;;;;;;5009253;28;20026;-84
2021/03/28 07:13:08;;;;;;;10.27;2.40;;;8.60;87.60;;;;;;5027870;28;20026;-82
2021/03/28 07:15:47;;;;;;;11.45;2.17;;;8.70;87.50;;;;;;5017843;28;20056;-82
2021/03/28 07:18:24;;;;;;;10.07;2.70;;;8.80;87.40;;;;;;5044924;28;20044;-82
2021/03/28 07:21:21;;;;;;;7.90;3.00;;;8.90;87.30;;;;;;5053574;28;20465;-82
2021/03/28 07:24:05;;;;;;;12.07;2.85;;;8.90;86.90;;;;;;5025456;28;20021;-82
2021/03/28 07:26:55;;;;;;;9.50;2.40;;;8.90;87.20;;;;;;5028641;28;20026;-83
2021/03/28 07:29:27;;;;;;;11.27;3.03;;;8.90;87.10;;;;;;5042946;28;20021;-88
2021/03/28 07:35:02;;;;;;;11.95;3.45;;;9.00;87.20;;;;;;5078012;28;20148;-83
2021/03/28 07:37:58;;;;;;;9.20;2.70;;;9.00;86.90;;;;;;5089967;28;20039;-82
2021/03/28 07:40:57;;;;;;;8.27;2.90;;;9.10;86.90;;;;;;5057142;28;20036;-82
2021/03/28 07:43:47;;;;;;;12.68;2.90;;;9.10;86.70;;;;;;5070583;28;20060;-82
2021/03/28 07:46:48;;;;;;;8.90;2.70;;;9.20;86.50;;;;;;5090074;28;20028;-82
2021/03/28 07:49:58;;;;;;;9.75;2.38;;;9.20;86.90;;;;;;5049700;28;20032;-83
2021/03/28 07:52:24;;;;;;;12.93;2.67;;;9.30;87.00;;;;;;5051564;28;20460;-84
2021/03/28 07:55:18;;;;;;;9.20;2.50;;;9.30;86.90;;;;;;5083430;28;20028;-82
2021/03/28 07:58:21;;;;;;;11.07;3.05;;;9.40;86.80;;;;;;5087278;28;20048;-82
2021/03/28 08:01:25;;;;;;;10.40;2.63;;;9.50;86.50;;;;;;5054518;28;20413;-83
2021/03/28 08:04:05;;;;;;;12.90;2.58;;;9.60;86.30;;;;;;5058567;28;20131;-82
2021/03/28 08:07:03;;;;;;;9.55;2.80;;;9.60;86.30;;;;;;5071324;28;20032;-82
2021/03/28 08:09:57;;;;;;;7.72;2.65;;;9.70;86.20;;;;;;5062990;28;20037;-83
2021/03/28 08:12:32;;;;;;;10.30;3.05;;;9.70;86.60;;;;;;5027612;28;20048;-82
2021/03/28 08:15:29;;;;;;;10.98;3.08;;;9.80;86.50;;;;;;5062873;28;20029;-82
2021/03/28 08:18:13;;;;;;;12.10;3.15;;;9.90;86.40;;;;;;5069762;28;20103;-82
2021/03/28 08:21:16;;;;;;;13.00;3.20;;;10.00;86.40;;;;;;5070321;28;20032;-81
2021/03/28 08:23:48;;;;;;;12.95;3.17;;;10.00;85.60;;;;;;5071292;28;20031;-82
2021/03/28 08:26:25;;;;;;;9.45;2.85;;;10.10;85.70;;;;;;5071253;28;20353;-83
2021/03/28 08:29:24;;;;;;;14.45;3.00;;;10.20;85.40;;;;;;5071382;28;20028;-81
2021/03/28 08:32:08;;;;;;;11.40;2.70;;;10.20;84.40;;;;;;5078964;28;20025;-83
2021/03/28 08:35:07;;;;;;;8.88;2.47;;;10.30;84.30;;;;;;5064236;28;20049;-82
2021/03/28 08:37:48;;;;;;;6.57;2.60;;;10.40;85.10;;;;;;5063296;28;20119;-83
2021/03/28 08:40:39;;;;;;;15.45;2.67;;;10.50;85.20;;;;;;5086524;28;20468;-83
2021/03/28 08:43:33;;;;;;;15.07;3.28;;;10.60;84.30;;;;;;5071420;28;20039;-84
2021/03/28 08:46:21;;;;;;;16.00;3.08;;;10.70;83.30;;;;;;5055386;28;20477;-85
2021/03/28 08:48:59;;;;;;;10.35;2.80;;;10.80;83.40;;;;;;5060949;28;20439;-82
2021/03/28 08:51:33;;;;;;;9.40;2.60;;;10.90;82.70;;;;;;5063679;28;20025;-83
2021/03/28 08:54:08;;;;;;;11.98;2.88;;;10.90;83.70;;;;;;5081074;28;20012;-85
2021/03/28 08:57:01;;;;;;;9.98;2.75;;;11.10;82.30;;;;;;5094122;28;20032;-84
2021/03/28 08:59:42;;;;;;;7.47;2.60;;;11.20;81.70;;;;;;5052847;28;20033;-83
2021/03/28 09:02:30;;;;;;;11.23;3.03;;;11.30;81.80;;;;;;5063247;28;20076;-87
2021/03/28 09:05:22;;;;;;;14.02;3.00;;;11.40;80.80;;;;;;5080366;28;20050;-84
2021/03/28 09:08:10;;;;;;;13.00;3.15;;;11.50;80.20;;;;;;5053816;28;20089;-81
2021/03/28 09:20:53;;;;;;;11.82;2.13;;;12.00;78.00;;;;;;5075906;28;20113;-83
2021/03/28 09:23:34;;;;;;;10.85;2.83;;;12.10;78.20;;;;;;5058586;28;20028;-84
2021/03/28 09:26:21;;;;;;;11.32;2.70;;;12.20;75.50;;;;;;5072376;28;20465;-82
2021/03/28 09:32:26;;;;;;;16.98;3.85;;;12.40;74.40;;;;;;5024891;28;20048;-82
2021/03/28 09:35:19;;;;;;;10.40;2.60;;;12.40;74.30;;;;;;5030987;28;20049;-82
2021/03/28 09:38:13;;;;;;;13.55;3.17;;;12.40;73.80;;;;;;5014110;28;20025;-81
2021/03/28 09:40:56;;;;;;;10.57;2.80;;;12.50;74.50;;;;;;5004703;28;20117;-82
2021/03/28 09:43:56;;;;;;;9.25;2.65;;;12.60;75.10;;;;;;5019557;28;20524;-83
2021/03/28 09:46:38;;;;;;;10.27;2.85;;;12.70;71.90;;;;;;5014873;28;20116;-82
2021/03/28 09:49:15;;;;;;;12.15;3.40;;;12.70;72.10;;;;;;5015455;28;20025;-83
2021/03/28 09:52:02;;;;;;;12.95;2.83;;;12.70;71.00;;;;;;5011741;28;20512;-84
2021/03/28 09:54:33;;;;;;;7.70;2.03;;;12.70;71.30;;;;;;5005015;28;20087;-82
2021/03/28 09:56:59;;;;;;;;;;;12.80;71.60;;;;;;5026058;28;20040;-83
2021/03/28 09:59:41;;;;;;;12.10;2.95;;;12.90;71.90;;;;;;5025824;28;19905;-82
2021/03/28 10:02:28;;;;;;;9.88;2.00;;;13.00;69.80;;;;;;5036145;28;20115;-83
2021/03/28 10:05:01;;;;;;;12.13;2.53;;;12.90;66.60;;;;;;5053951;28;20029;-82
2021/03/28 10:07:36;;;;;;;7.38;2.13;;;13.00;68.40;;;;;;5069279;28;20016;-82
2021/03/28 10:10:19;;;;;;;10.65;2.17;;;13.00;68.20;;;;;;5067599;28;20024;-82
2021/03/28 10:13:15;;;;;;;8.85;2.00;;;13.10;68.20;;;;;;5053334;28;20028;-82
2021/03/28 10:15:55;;;;;;;9.98;1.92;;;13.10;67.80;;;;;;5043441;28;20021;-82
2021/03/28 10:18:53;;;;;;;8.60;2.45;;;13.20;63.20;;;;;;5054389;28;20027;-82
2021/03/28 10:21:47;;;;;;;5.00;1.58;;;13.30;65.20;;;;;;5048695;28;20013;-83
2021/03/28 10:24:32;;;;;;;12.45;2.53;;;13.40;62.70;;;;;;5045445;28;20041;-83
2021/03/28 10:27:27;;;;;;;8.98;2.08;;;13.40;64.00;;;;;;5048111;28;20434;-82
2021/03/28 10:30:11;;;;;;;8.90;2.30;;;13.60;62.90;;;;;;5044942;28;20043;-82
2021/03/28 10:33:07;;;;;;;9.50;1.85;;;13.60;63.30;;;;;;5051054;28;20529;-84
2021/03/28 10:36:02;;;;;;;6.97;1.95;;;13.70;62.20;;;;;;5048324;28;20036;-82
2021/03/28 10:38:38;;;;;;;6.82;1.83;;;13.80;62.10;;;;;;5071168;28;20089;-82
2021/03/28 10:41:25;;;;;;;7.88;1.58;;;13.80;60.70;;;;;;5050865;28;20016;-82
2021/03/28 10:44:14;;;;;;;8.70;2.10;;;13.90;59.00;;;;;;5046594;28;20028;-82
2021/03/28 10:47:14;;;;;;;7.78;1.77;;;13.90;59.20;;;;;;5066836;28;20073;-83
2021/03/28 10:50:10;;;;;;;7.82;2.55;;;14.00;58.70;;;;;;5051612;28;20020;-84
2021/03/28 10:53:06;;;;;;;7.47;2.35;;;14.00;59.20;;;;;;5050889;28;20430;-82
2021/03/28 10:56:09;;;;;;;5.68;1.90;;;13.90;59.80;;;;;;5072117;28;20032;-84
2021/03/28 10:59:12;;;;;;;8.95;1.77;;;14.00;60.60;;;;;;5047613;28;20466;-85
2021/03/28 11:01:44;;;;;;;10.32;2.70;;;13.90;60.00;;;;;;5052810;28;20067;-81
2021/03/28 11:04:24;;;;;;;8.80;2.72;;;13.90;60.20;;;;;;5044649;28;20036;-87
2021/03/28 11:07:11;;;;;;;8.70;2.08;;;13.90;60.70;;;;;;5064127;28;20477;-85
2021/03/28 11:09:57;;;;;;;10.65;2.45;;;14.00;60.60;;;;;;5036275;28;20036;-81
2021/03/28 11:12:41;;;;;;;7.85;2.38;;;14.00;61.50;;;;;;5040169;28;20036;-81
2021/03/28 11:15:13;;;;;;;9.65;1.88;;;14.00;61.70;;;;;;5050373;28;20029;-86
2021/03/28 11:18:03;;;;;;;7.65;2.10;;;13.90;61.50;;;;;;5039897;28;20029;-85
2021/03/28 11:20:53;;;;;;;7.20;1.60;;;13.90;61.80;;;;;;5049268;28;20494;-84
2021/03/28 11:24:03;;;;;;;7.32;1.88;;;13.90;61.70;;;;;;5054587;28;20028;-85
2021/03/28 11:26:48;;;;;;;6.07;1.70;;;13.80;62.10;;;;;;5006718;28;20033;-86
2021/03/28 11:29:42;;;;;;;11.60;1.92;;;13.80;62.70;;;;;;5040595;28;20465;-85
2021/03/28 11:32:26;;;;;;;10.75;2.10;;;13.80;64.00;;;;;;5072343;28;20023;-85
2021/03/28 11:35:03;;;;;;;8.15;1.83;;;13.90;64.20;;;;;;5071801;28;20044;-85
2021/03/28 11:37:35;;;;;;;8.02;2.38;;;14.00;65.30;;;;;;5054167;28;20484;-85
2021/03/28 11:40:23;;;;;;;9.35;2.05;;;13.90;65.60;;;;;;5060476;28;20462;-85
2021/03/28 11:43:11;;;;;;;7.32;2.25;;;13.90;64.60;;;;;;5054360;28;20024;-85
2021/03/28 11:46:02;;;;;;;8.18;2.40;;;13.90;65.00;;;;;;5053990;28;20021;-86
2021/03/28 11:48:35;;;;;;;12.10;3.05;;;14.00;65.70;;;;;;5052826;28;20016;-86
2021/03/28 11:51:19;;;;;;;6.40;2.35;;;13.90;64.90;;;;;;5054152;28;20021;-85
2021/03/28 11:53:50;;;;;;;9.05;2.63;;;13.90;66.00;;;;;;5071604;28;20021;-84
2021/03/28 11:56:41;;;;;;;8.73;2.63;;;13.80;65.50;;;;;;5065527;28;20037;-86
2021/03/28 11:59:22;;;;;;;;;;;13.80;66.00;;;;;;5050699;28;20024;-85
2021/03/28 12:02:03;;;;;;;7.80;2.20;;;13.80;65.50;;;;;;5051048;28;19912;-86
2021/03/28 12:04:34;;;;;;;13.98;2.20;;;13.80;64.90;;;;;;5069098;28;20021;-84
2021/03/28 12:07:22;;;;;;;8.88;2.00;;;13.70;64.80;;;;;;5049595;28;20052;-82
2021/03/28 12:09:54;;;;;;;7.32;2.13;;;13.70;64.20;;;;;;5048232;28;20021;-82
2021/03/28 12:12:39;;;;;;;11.93;2.63;;;13.60;64.10;;;;;;5047776;28;20021;-83
2021/03/28 12:15:42;;;;;;;12.35;2.80;;;13.60;63.90;;;;;;5042549;28;20384;-82
2021/03/28 12:18:28;;;;;;;7.00;2.15;;;13.60;64.60;;;;;;5042865;28;20102;-87
2021/03/28 12:21:02;;;;;;;8.57;2.80;;;13.60;64.50;;;;;;5041573;28;20027;-83
2021/03/28 12:23:40;;;;;;;9.20;2.40;;;13.50;64.80;;;;;;5052199;28;20036;-84
2021/03/28 12:26:19;;;;;;;8.63;2.33;;;13.60;65.10;;;;;;5055950;28;20452;-83
2021/03/28 12:28:44;;;;;;;14.25;2.40;;;13.60;65.00;;;;;;5058455;28;20024;-84
2021/03/28 12:31:38;;;;;;;12.05;3.03;;;13.60;64.60;;;;;;5083718;28;20055;-85
2021/03/28 12:34:19;;;;;;;11.10;2.50;;;13.60;64.60;;;;;;5079883;28;20048;-88
2021/03/28 12:37:06;;;;;;;8.60;2.78;;;13.50;65.30;;;;;;5081172;28;20044;-84
2021/03/28 12:40:01;;;;;;;13.73;3.38;;;13.60;65.50;;;;;;5082012;28;20023;-87
2021/03/28 12:42:48;;;;;;;15.93;3.95;;;13.60;65.30;;;;;;5078862;28;20024;-83
2021/03/28 12:45:13;;;;;;;24.55;12.27;;;13.60;65.00;;;;;;5078938;28;20032;-84
2021/03/28 12:47:41;;;;;;;15.45;7.93;;;13.60;64.90;;;;;;5073366;28;20084;-89
2021/03/28 12:50:13;;;;;;;14.35;4.57;;;13.50;64.90;;;;;;5081768;28;20023;-83
2021/03/28 12:52:43;;;;;;;9.57;2.90;;;13.60;65.60;;;;;;5045564;28;20090;-81
2021/03/28 12:55:14;;;;;;;9.90;2.88;;;13.60;65.50;;;;;;5054125;28;20020;-82
2021/03/28 12:57:45;;;;;;;13.00;2.53;;;13.70;66.00;;;;;;5057280;28;20372;-83
2021/03/28 13:00:35;;;;;;;6.40;2.20;;;13.60;64.70;;;;;;5056586;28;20375;-83
2021/03/28 13:03:19;;;;;;;8.00;2.10;;;13.60;65.80;;;;;;5068116;28;20023;-83
2021/03/28 13:06:13;;;;;;;10.25;1.80;;;13.60;65.30;;;;;;5074426;28;20028;-83
2021/03/28 13:08:49;;;;;;;9.35;2.15;;;13.60;65.30;;;;;;5056284;28;20028;-83
2021/03/28 13:11:16;;;;;;;10.90;2.25;;;13.70;65.50;;;;;;5056114;28;20133;-84
2021/03/28 13:13:47;;;;;;;8.75;1.92;;;13.70;65.20;;;;;;5035439;28;20457;-84
2021/03/28 13:16:28;;;;;;;10.70;3.22;;;13.70;65.10;;;;;;5047235;28;20224;-83
2021/03/28 13:18:55;;;;;;;12.52;2.28;;;13.70;65.30;;;;;;5051518;28;20311;-82
2021/03/28 13:21:21;;;;;;;8.02;1.63;;;13.70;65.80;;;;;;5055730;28;20021;-81
2021/03/28 13:23:46;;;;;;;8.55;1.95;;;13.80;66.10;;;;;;5039654;28;20196;-80
2021/03/28 13:26:30;;;;;;;9.57;2.47;;;13.80;65.90;;;;;;5053139;28;20021;-81
2021/03/28 13:29:06;;;;;;;13.65;5.03;;;13.90;65.70;;;;;;5043945;28;20029;-79
2021/03/28 13:31:58;;;;;;;21.15;6.53;;;13.90;65.30;;;;;;5053717;28;20496;-84
2021/03/28 13:34:29;;;;;;;11.63;3.72;;;13.90;64.80;;;;;;5043079;28;20191;-78
2021/03/28 13:37:09;;;;;;;21.63;8.48;;;13.80;64.60;;;;;;5049964;28;20021;-77
2021/03/28 13:39:40;;;;;;;12.32;3.83;;;13.80;65.00;;;;;;5043483;28;20060;-79
2021/03/28 13:42:19;;;;;;;16.98;6.30;;;13.80;64.60;;;;;;5074553;28;20037;-92
2021/03/28 13:45:12;;;;;;;;;;;;;;;;;;;;;
2021/03/28 13:51:21;;;;;;;8.00;2.22;;;13.70;65.80;;;;;;5051683;28;20033;-87
2021/03/28 13:54:08;;;;;;;10.68;2.17;;;13.70;65.40;;;;;;5005164;28;20038;-77
2021/03/28 13:56:49;;;;;;;8.90;2.38;;;13.70;65.90;;;;;;4993311;28;20112;-77
2021/03/28 13:59:30;;;;;;;6.72;2.00;;;13.70;65.80;;;;;;5031097;28;20036;-77
2021/03/28 14:02:22;;;;;;;9.43;2.80;;;13.70;66.20;;;;;;5054119;28;20019;-77
2021/03/28 14:04:56;;;;;;;8.02;2.30;;;13.70;66.50;;;;;;5055176;28;20025;-78
2021/03/28 14:07:26;;;;;;;14.25;5.20;;;13.80;66.20;;;;;;5064076;28;20070;-76
2021/03/28 14:10:08;;;;;;;10.65;4.22;;;13.80;66.30;;;;;;5071728;28;20119;-81
2021/03/28 14:13:02;;;;;;;12.90;3.40;;;13.90;66.60;;;;;;5071809;28;20047;-78
2021/03/28 14:15:37;;;;;;;12.93;3.58;;;13.90;65.70;;;;;;5060504;28;20082;-77
2021/03/28 14:18:06;;;;;;;9.05;2.85;;;13.90;66.30;;;;;;5067171;28;20036;-76
2021/03/28 14:20:32;;;;;;;7.60;2.80;;;14.00;66.40;;;;;;5053910;28;20423;-76
2021/03/28 14:23:10;;;;;;;8.15;2.65;;;14.00;66.80;;;;;;5053624;28;20021;-76
2021/03/28 14:25:44;;;;;;;16.25;3.58;;;14.00;66.50;;;;;;5071889;28;20558;-78
2021/03/28 14:28:28;;;;;;;8.85;3.28;;;14.00;66.50;;;;;;5055523;28;20081;-77
2021/03/28 14:31:12;;;;;;;13.57;4.28;;;14.00;67.00;;;;;;5053529;28;20082;-81
2021/03/28 14:34:14;;;;;;;10.82;3.70;;;14.00;66.80;;;;;;5071166;28;20057;-88
2021/03/28 14:36:54;;;;;;;13.23;5.43;;;13.90;66.40;;;;;;5039241;28;20025;-88
2021/03/28 14:39:23;;;;;;;21.55;8.00;;;13.90;66.70;;;;;;5067775;28;20029;-88